sensor_id;sensor_type;location;lat;lon;timestamp;temperature;humidity
68217;DHT22;55037;52.354;4.992;2023-07-29T00:00:50;19.80;78.40
68217;DHT22;55037;52.354;4.992;2023-07-29T00:03:17;19.80;78.40
68217;DHT22;55037;52.354;4.992;2023-07-29T00:05:45;19.80;78.40
68217;DHT22;55037;52.354;4.992;2023-07-29T00:08:12;19.90;78.30
68217;DHT22;55037;52.354;4.992;2023-07-29T00:10:40;19.90;78.20
68217;DHT22;55037;52.354;4.992;2023-07-29T00:13:07;19.90;78.00
68217;DHT22;55037;52.354;4.992;2023-07-29T00:15:35;19.90;77.80
68217;DHT22;55037;52.354;4.992;2023-07-29T00:18:02;19.90;77.80
68217;DHT22;55037;52.354;4.992;2023-07-29T00:20:29;19.90;77.80
68217;DHT22;55037;52.354;4.992;2023-07-29T00:22:57;19.90;77.80
68217;DHT22;55037;52.354;4.992;2023-07-29T00:25:25;20.00;77.70
68217;DHT22;55037;52.354;4.992;2023-07-29T00:27:56;20.10;77.70
68217;DHT22;55037;52.354;4.992;2023-07-29T00:30:25;20.10;77.50
68217;DHT22;55037;52.354;4.992;2023-07-29T00:32:52;20.20;77.20
68217;DHT22;55037;52.354;4.992;2023-07-29T00:35:20;20.20;77.10
68217;DHT22;55037;52.354;4.992;2023-07-29T00:37:47;20.20;77.00
68217;DHT22;55037;52.354;4.992;2023-07-29T00:40:17;20.20;77.00
68217;DHT22;55037;52.354;4.992;2023-07-29T00:42:48;20.20;76.90
68217;DHT22;55037;52.354;4.992;2023-07-29T00:45:15;20.20;76.90
68217;DHT22;55037;52.354;4.992;2023-07-29T00:47:44;20.10;76.70
68217;DHT22;55037;52.354;4.992;2023-07-29T00:50:13;20.10;76.80
68217;DHT22;55037;52.354;4.992;2023-07-29T00:52:41;20.20;76.90
68217;DHT22;55037;52.354;4.992;2023-07-29T00:55:09;20.20;76.80
68217;DHT22;55037;52.354;4.992;2023-07-29T00:57:39;20.20;76.80
68217;DHT22;55037;52.354;4.992;2023-07-29T01:00:10;20.20;76.90
68217;DHT22;55037;52.354;4.992;2023-07-29T01:02:38;20.20;76.80
68217;DHT22;55037;52.354;4.992;2023-07-29T01:05:06;20.20;76.70
68217;DHT22;55037;52.354;4.992;2023-07-29T01:08:06;20.20;76.60
68217;DHT22;55037;52.354;4.992;2023-07-29T01:11:13;20.20;76.60
68217;DHT22;55037;52.354;4.992;2023-07-29T01:13:48;20.20;76.60
68217;DHT22;55037;52.354;4.992;2023-07-29T01:16:22;20.20;76.50
68217;DHT22;55037;52.354;4.992;2023-07-29T01:18:52;20.20;76.40
68217;DHT22;55037;52.354;4.992;2023-07-29T01:21:21;20.30;76.50
68217;DHT22;55037;52.354;4.992;2023-07-29T01:23:52;20.20;76.40
68217;DHT22;55037;52.354;4.992;2023-07-29T01:26:20;20.20;76.50
68217;DHT22;55037;52.354;4.992;2023-07-29T01:28:47;20.20;76.50
68217;DHT22;55037;52.354;4.992;2023-07-29T01:31:23;20.20;76.40
68217;DHT22;55037;52.354;4.992;2023-07-29T01:36:53;20.10;76.70
68217;DHT22;55037;52.354;4.992;2023-07-29T01:39:21;20.10;76.70
68217;DHT22;55037;52.354;4.992;2023-07-29T01:41:50;20.10;77.70
68217;DHT22;55037;52.354;4.992;2023-07-29T01:44:18;20.10;76.60
68217;DHT22;55037;52.354;4.992;2023-07-29T01:46:47;20.10;76.70
68217;DHT22;55037;52.354;4.992;2023-07-29T01:49:14;20.00;76.60
68217;DHT22;55037;52.354;4.992;2023-07-29T01:51:41;20.00;76.50
68217;DHT22;55037;52.354;4.992;2023-07-29T01:54:09;20.00;76.50
68217;DHT22;55037;52.354;4.992;2023-07-29T01:56:37;19.90;76.30
68217;DHT22;55037;52.354;4.992;2023-07-29T01:59:04;19.90;76.20
68217;DHT22;55037;52.354;4.992;2023-07-29T02:01:32;19.90;76.10
68217;DHT22;55037;52.354;4.992;2023-07-29T02:03:59;19.90;75.80
68217;DHT22;55037;52.354;4.992;2023-07-29T02:06:26;19.90;75.70
68217;DHT22;55037;52.354;4.992;2023-07-29T02:08:55;19.90;75.60
68217;DHT22;55037;52.354;4.992;2023-07-29T02:11:22;19.90;75.50
68217;DHT22;55037;52.354;4.992;2023-07-29T02:13:55;19.90;75.60
68217;DHT22;55037;52.354;4.992;2023-07-29T02:16:22;19.80;75.50
68217;DHT22;55037;52.354;4.992;2023-07-29T02:18:50;19.80;75.60
68217;DHT22;55037;52.354;4.992;2023-07-29T02:21:22;19.70;75.60
68217;DHT22;55037;52.354;4.992;2023-07-29T02:23:49;19.70;75.60
68217;DHT22;55037;52.354;4.992;2023-07-29T02:26:17;19.70;75.80
68217;DHT22;55037;52.354;4.992;2023-07-29T02:28:45;19.60;75.90
68217;DHT22;55037;52.354;4.992;2023-07-29T02:31:16;19.60;75.90
68217;DHT22;55037;52.354;4.992;2023-07-29T02:33:46;19.60;75.90
68217;DHT22;55037;52.354;4.992;2023-07-29T02:36:15;19.60;76.10
68217;DHT22;55037;52.354;4.992;2023-07-29T02:38:43;19.60;76.10
68217;DHT22;55037;52.354;4.992;2023-07-29T02:41:11;19.50;76.30
68217;DHT22;55037;52.354;4.992;2023-07-29T02:43:41;19.50;77.30
68217;DHT22;55037;52.354;4.992;2023-07-29T02:46:09;19.50;76.40
68217;DHT22;55037;52.354;4.992;2023-07-29T02:48:36;19.50;76.60
68217;DHT22;55037;52.354;4.992;2023-07-29T02:51:04;19.50;76.60
68217;DHT22;55037;52.354;4.992;2023-07-29T02:53:31;19.50;76.60
68217;DHT22;55037;52.354;4.992;2023-07-29T02:55:58;19.50;76.70
68217;DHT22;55037;52.354;4.992;2023-07-29T02:58:25;19.50;76.80
68217;DHT22;55037;52.354;4.992;2023-07-29T03:00:53;19.50;77.00
68217;DHT22;55037;52.354;4.992;2023-07-29T03:03:21;19.50;77.00
68217;DHT22;55037;52.354;4.992;2023-07-29T03:05:48;19.50;77.20
68217;DHT22;55037;52.354;4.992;2023-07-29T03:08:16;19.40;77.40
68217;DHT22;55037;52.354;4.992;2023-07-29T03:10:43;19.40;77.40
68217;DHT22;55037;52.354;4.992;2023-07-29T03:13:10;19.30;77.50
68217;DHT22;55037;52.354;4.992;2023-07-29T03:15:37;19.30;77.90
68217;DHT22;55037;52.354;4.992;2023-07-29T03:18:05;19.30;77.80
68217;DHT22;55037;52.354;4.992;2023-07-29T03:20:32;19.30;77.90
68217;DHT22;55037;52.354;4.992;2023-07-29T03:22:59;19.30;78.20
68217;DHT22;55037;52.354;4.992;2023-07-29T03:25:27;19.30;78.10
68217;DHT22;55037;52.354;4.992;2023-07-29T03:27:54;19.30;78.00
68217;DHT22;55037;52.354;4.992;2023-07-29T03:30:22;19.30;78.20
68217;DHT22;55037;52.354;4.992;2023-07-29T03:32:51;19.30;78.20
68217;DHT22;55037;52.354;4.992;2023-07-29T03:35:18;19.30;78.20
68217;DHT22;55037;52.354;4.992;2023-07-29T03:37:46;19.30;78.30
68217;DHT22;55037;52.354;4.992;2023-07-29T03:40:14;19.30;78.50
68217;DHT22;55037;52.354;4.992;2023-07-29T03:42:41;19.30;78.60
68217;DHT22;55037;52.354;4.992;2023-07-29T03:45:09;19.20;78.60
68217;DHT22;55037;52.354;4.992;2023-07-29T03:47:37;19.20;78.80
68217;DHT22;55037;52.354;4.992;2023-07-29T03:50:05;19.20;78.80
68217;DHT22;55037;52.354;4.992;2023-07-29T03:52:32;19.20;79.00
68217;DHT22;55037;52.354;4.992;2023-07-29T03:54:59;19.20;79.10
68217;DHT22;55037;52.354;4.992;2023-07-29T03:57:27;19.10;79.10
68217;DHT22;55037;52.354;4.992;2023-07-29T03:59:56;19.20;78.70
68217;DHT22;55037;52.354;4.992;2023-07-29T04:02:23;19.20;79.50
68217;DHT22;55037;52.354;4.992;2023-07-29T04:04:51;19.30;79.30
68217;DHT22;55037;52.354;4.992;2023-07-29T04:07:21;19.30;79.20
68217;DHT22;55037;52.354;4.992;2023-07-29T04:09:48;19.30;78.60
68217;DHT22;55037;52.354;4.992;2023-07-29T04:12:16;19.30;79.40
68217;DHT22;55037;52.354;4.992;2023-07-29T04:14:43;19.30;79.20
68217;DHT22;55037;52.354;4.992;2023-07-29T04:17:11;19.30;79.10
68217;DHT22;55037;52.354;4.992;2023-07-29T04:19:38;19.30;79.10
68217;DHT22;55037;52.354;4.992;2023-07-29T04:22:05;19.30;79.00
68217;DHT22;55037;52.354;4.992;2023-07-29T04:24:33;19.30;79.10
68217;DHT22;55037;52.354;4.992;2023-07-29T04:27:00;19.30;79.20
68217;DHT22;55037;52.354;4.992;2023-07-29T04:29:28;19.30;79.30
68217;DHT22;55037;52.354;4.992;2023-07-29T04:31:55;19.40;79.40
68217;DHT22;55037;52.354;4.992;2023-07-29T04:34:23;19.40;79.30
68217;DHT22;55037;52.354;4.992;2023-07-29T04:36:50;19.40;79.10
68217;DHT22;55037;52.354;4.992;2023-07-29T04:39:17;19.30;79.00
68217;DHT22;55037;52.354;4.992;2023-07-29T04:41:45;19.30;79.10
68217;DHT22;55037;52.354;4.992;2023-07-29T04:44:14;19.30;79.30
68217;DHT22;55037;52.354;4.992;2023-07-29T04:46:41;19.30;79.30
68217;DHT22;55037;52.354;4.992;2023-07-29T04:49:08;19.30;79.20
68217;DHT22;55037;52.354;4.992;2023-07-29T04:51:36;19.30;79.40
68217;DHT22;55037;52.354;4.992;2023-07-29T04:54:04;19.40;79.40
68217;DHT22;55037;52.354;4.992;2023-07-29T04:56:31;19.40;79.50
68217;DHT22;55037;52.354;4.992;2023-07-29T04:58:58;19.50;79.50
68217;DHT22;55037;52.354;4.992;2023-07-29T05:01:26;19.60;79.30
68217;DHT22;55037;52.354;4.992;2023-07-29T05:03:53;19.60;79.10
68217;DHT22;55037;52.354;4.992;2023-07-29T05:06:21;19.70;79.10
68217;DHT22;55037;52.354;4.992;2023-07-29T05:08:48;19.70;79.00
68217;DHT22;55037;52.354;4.992;2023-07-29T05:11:15;19.80;78.90
68217;DHT22;55037;52.354;4.992;2023-07-29T05:13:43;19.80;79.00
68217;DHT22;55037;52.354;4.992;2023-07-29T05:16:12;19.90;78.90
68217;DHT22;55037;52.354;4.992;2023-07-29T05:18:39;20.00;78.70
68217;DHT22;55037;52.354;4.992;2023-07-29T05:21:06;20.00;78.60
68217;DHT22;55037;52.354;4.992;2023-07-29T05:23:35;20.00;78.50
68217;DHT22;55037;52.354;4.992;2023-07-29T05:26:03;20.10;78.40
68217;DHT22;55037;52.354;4.992;2023-07-29T05:28:30;20.10;78.30
68217;DHT22;55037;52.354;4.992;2023-07-29T05:31:00;20.10;78.50
68217;DHT22;55037;52.354;4.992;2023-07-29T05:33:28;20.20;78.40
68217;DHT22;55037;52.354;4.992;2023-07-29T05:35:56;20.30;77.80
68217;DHT22;55037;52.354;4.992;2023-07-29T05:38:23;20.30;77.90
68217;DHT22;55037;52.354;4.992;2023-07-29T05:40:51;20.30;77.70
68217;DHT22;55037;52.354;4.992;2023-07-29T05:43:18;20.30;77.60
68217;DHT22;55037;52.354;4.992;2023-07-29T05:45:45;20.20;78.00
68217;DHT22;55037;52.354;4.992;2023-07-29T05:48:13;20.30;78.00
68217;DHT22;55037;52.354;4.992;2023-07-29T05:50:40;20.20;77.80
68217;DHT22;55037;52.354;4.992;2023-07-29T05:53:07;20.30;78.30
68217;DHT22;55037;52.354;4.992;2023-07-29T05:55:35;20.30;78.40
68217;DHT22;55037;52.354;4.992;2023-07-29T05:58:02;20.50;78.50
68217;DHT22;55037;52.354;4.992;2023-07-29T06:00:29;20.70;78.20
68217;DHT22;55037;52.354;4.992;2023-07-29T06:02:59;20.90;77.70
68217;DHT22;55037;52.354;4.992;2023-07-29T06:05:26;20.90;77.20
68217;DHT22;55037;52.354;4.992;2023-07-29T06:07:54;21.10;77.00
68217;DHT22;55037;52.354;4.992;2023-07-29T06:10:21;21.20;76.60
68217;DHT22;55037;52.354;4.992;2023-07-29T06:12:49;21.30;76.30
68217;DHT22;55037;52.354;4.992;2023-07-29T06:15:16;21.30;75.90
68217;DHT22;55037;52.354;4.992;2023-07-29T06:17:44;21.30;75.70
68217;DHT22;55037;52.354;4.992;2023-07-29T06:20:11;21.20;75.80
68217;DHT22;55037;52.354;4.992;2023-07-29T06:22:39;21.20;76.00
68217;DHT22;55037;52.354;4.992;2023-07-29T06:25:06;21.30;75.90
68217;DHT22;55037;52.354;4.992;2023-07-29T06:27:34;21.30;76.00
68217;DHT22;55037;52.354;4.992;2023-07-29T06:30:01;21.40;75.80
68217;DHT22;55037;52.354;4.992;2023-07-29T06:32:28;21.40;75.50
68217;DHT22;55037;52.354;4.992;2023-07-29T06:34:55;21.50;75.60
68217;DHT22;55037;52.354;4.992;2023-07-29T06:37:23;21.60;75.30
68217;DHT22;55037;52.354;4.992;2023-07-29T06:39:50;21.60;75.10
68217;DHT22;55037;52.354;4.992;2023-07-29T06:42:17;21.60;75.10
68217;DHT22;55037;52.354;4.992;2023-07-29T06:44:45;21.50;74.90
68217;DHT22;55037;52.354;4.992;2023-07-29T06:47:13;21.50;75.20
68217;DHT22;55037;52.354;4.992;2023-07-29T06:49:40;21.50;75.30
68217;DHT22;55037;52.354;4.992;2023-07-29T06:52:07;21.40;75.10
68217;DHT22;55037;52.354;4.992;2023-07-29T06:54:35;21.40;75.00
68217;DHT22;55037;52.354;4.992;2023-07-29T06:57:02;21.40;75.10
68217;DHT22;55037;52.354;4.992;2023-07-29T06:59:29;21.30;75.00
68217;DHT22;55037;52.354;4.992;2023-07-29T07:01:57;21.00;75.40
68217;DHT22;55037;52.354;4.992;2023-07-29T07:04:24;20.70;76.60
68217;DHT22;55037;52.354;4.992;2023-07-29T07:06:51;20.70;78.00
68217;DHT22;55037;52.354;4.992;2023-07-29T07:09:19;20.80;79.10
68217;DHT22;55037;52.354;4.992;2023-07-29T07:11:46;21.10;78.60
68217;DHT22;55037;52.354;4.992;2023-07-29T07:14:14;21.20;78.00
68217;DHT22;55037;52.354;4.992;2023-07-29T07:16:41;21.40;78.20
68217;DHT22;55037;52.354;4.992;2023-07-29T07:19:08;21.60;78.00
68217;DHT22;55037;52.354;4.992;2023-07-29T07:21:36;22.10;77.80
68217;DHT22;55037;52.354;4.992;2023-07-29T07:24:03;22.40;76.80
68217;DHT22;55037;52.354;4.992;2023-07-29T07:26:30;22.70;76.60
68217;DHT22;55037;52.354;4.992;2023-07-29T07:28:58;22.90;75.60
68217;DHT22;55037;52.354;4.992;2023-07-29T07:31:25;23.00;75.00
68217;DHT22;55037;52.354;4.992;2023-07-29T07:33:52;23.00;74.50
68217;DHT22;55037;52.354;4.992;2023-07-29T07:36:21;23.30;73.80
68217;DHT22;55037;52.354;4.992;2023-07-29T07:38:48;23.30;72.60
68217;DHT22;55037;52.354;4.992;2023-07-29T07:41:16;23.50;72.40
68217;DHT22;55037;52.354;4.992;2023-07-29T07:43:43;23.60;71.50
68217;DHT22;55037;52.354;4.992;2023-07-29T07:46:10;23.70;71.30
68217;DHT22;55037;52.354;4.992;2023-07-29T07:48:38;23.70;70.60
68217;DHT22;55037;52.354;4.992;2023-07-29T07:51:12;23.80;70.90
68217;DHT22;55037;52.354;4.992;2023-07-29T07:53:39;23.90;70.70
68217;DHT22;55037;52.354;4.992;2023-07-29T07:56:07;23.70;69.40
68217;DHT22;55037;52.354;4.992;2023-07-29T07:58:35;22.70;69.20
68217;DHT22;55037;52.354;4.992;2023-07-29T08:01:03;22.00;73.90
68217;DHT22;55037;52.354;4.992;2023-07-29T08:03:31;21.60;75.90
68217;DHT22;55037;52.354;4.992;2023-07-29T08:05:58;21.40;77.70
68217;DHT22;55037;52.354;4.992;2023-07-29T08:08:26;21.40;77.90
68217;DHT22;55037;52.354;4.992;2023-07-29T08:10:56;21.30;78.50
68217;DHT22;55037;52.354;4.992;2023-07-29T08:13:24;21.20;79.30
68217;DHT22;55037;52.354;4.992;2023-07-29T08:15:52;21.40;80.60
68217;DHT22;55037;52.354;4.992;2023-07-29T08:18:20;21.80;80.50
68217;DHT22;55037;52.354;4.992;2023-07-29T08:20:55;22.10;79.40
68217;DHT22;55037;52.354;4.992;2023-07-29T08:23:25;22.70;80.10
68217;DHT22;55037;52.354;4.992;2023-07-29T08:25:54;23.00;76.70
68217;DHT22;55037;52.354;4.992;2023-07-29T08:28:23;23.10;76.00
68217;DHT22;55037;52.354;4.992;2023-07-29T08:30:51;23.30;75.70
68217;DHT22;55037;52.354;4.992;2023-07-29T08:33:18;23.70;75.70
68217;DHT22;55037;52.354;4.992;2023-07-29T08:35:45;23.80;71.50
68217;DHT22;55037;52.354;4.992;2023-07-29T08:38:13;23.60;70.10
68217;DHT22;55037;52.354;4.992;2023-07-29T08:41:06;23.20;70.60
68217;DHT22;55037;52.354;4.992;2023-07-29T08:43:39;23.10;72.10
68217;DHT22;55037;52.354;4.992;2023-07-29T08:46:09;23.20;71.40
68217;DHT22;55037;52.354;4.992;2023-07-29T08:48:40;23.30;71.40
68217;DHT22;55037;52.354;4.992;2023-07-29T08:51:10;23.40;71.90
68217;DHT22;55037;52.354;4.992;2023-07-29T08:53:38;23.70;70.40
68217;DHT22;55037;52.354;4.992;2023-07-29T08:56:07;24.00;68.60
68217;DHT22;55037;52.354;4.992;2023-07-29T08:58:35;24.10;67.80
68217;DHT22;55037;52.354;4.992;2023-07-29T09:01:02;23.90;67.60
68217;DHT22;55037;52.354;4.992;2023-07-29T09:03:29;23.80;67.50
68217;DHT22;55037;52.354;4.992;2023-07-29T09:05:58;23.60;67.80
68217;DHT22;55037;52.354;4.992;2023-07-29T09:08:26;23.40;67.90
68217;DHT22;55037;52.354;4.992;2023-07-29T09:10:54;23.30;68.00
68217;DHT22;55037;52.354;4.992;2023-07-29T09:13:22;23.20;67.80
68217;DHT22;55037;52.354;4.992;2023-07-29T09:15:54;23.10;68.10
68217;DHT22;55037;52.354;4.992;2023-07-29T09:18:22;23.00;68.30
68217;DHT22;55037;52.354;4.992;2023-07-29T09:20:50;22.90;68.40
68217;DHT22;55037;52.354;4.992;2023-07-29T09:23:17;22.60;68.70
68217;DHT22;55037;52.354;4.992;2023-07-29T09:25:47;22.40;69.80
68217;DHT22;55037;52.354;4.992;2023-07-29T09:28:15;22.50;71.40
68217;DHT22;55037;52.354;4.992;2023-07-29T09:30:46;23.00;70.50
68217;DHT22;55037;52.354;4.992;2023-07-29T09:33:14;23.50;70.20
68217;DHT22;55037;52.354;4.992;2023-07-29T09:35:41;24.40;70.20
68217;DHT22;55037;52.354;4.992;2023-07-29T09:38:14;25.90;65.40
68217;DHT22;55037;52.354;4.992;2023-07-29T09:40:42;26.40;61.90
68217;DHT22;55037;52.354;4.992;2023-07-29T09:43:12;26.30;60.10
68217;DHT22;55037;52.354;4.992;2023-07-29T09:45:39;26.20;60.70
68217;DHT22;55037;52.354;4.992;2023-07-29T09:48:06;25.80;59.60
68217;DHT22;55037;52.354;4.992;2023-07-29T09:50:37;25.20;60.60
68217;DHT22;55037;52.354;4.992;2023-07-29T09:53:07;24.90;61.60
68217;DHT22;55037;52.354;4.992;2023-07-29T09:55:34;25.00;61.50
68217;DHT22;55037;52.354;4.992;2023-07-29T09:58:02;25.40;61.50
68217;DHT22;55037;52.354;4.992;2023-07-29T10:00:32;25.90;59.60
68217;DHT22;55037;52.354;4.992;2023-07-29T10:03:00;26.20;58.10
68217;DHT22;55037;52.354;4.992;2023-07-29T10:05:28;27.00;57.00
68217;DHT22;55037;52.354;4.992;2023-07-29T10:07:56;27.70;54.60
68217;DHT22;55037;52.354;4.992;2023-07-29T10:10:24;28.30;52.10
68217;DHT22;55037;52.354;4.992;2023-07-29T10:12:52;28.80;49.70
68217;DHT22;55037;52.354;4.992;2023-07-29T10:15:21;28.70;47.30
68217;DHT22;55037;52.354;4.992;2023-07-29T10:17:50;28.10;46.80
68217;DHT22;55037;52.354;4.992;2023-07-29T10:20:18;27.10;48.40
68217;DHT22;55037;52.354;4.992;2023-07-29T10:22:47;26.10;50.60
68217;DHT22;55037;52.354;4.992;2023-07-29T10:25:19;25.60;53.50
68217;DHT22;55037;52.354;4.992;2023-07-29T10:27:53;25.50;55.70
68217;DHT22;55037;52.354;4.992;2023-07-29T10:30:24;25.40;55.00
68217;DHT22;55037;52.354;4.992;2023-07-29T10:32:52;25.60;55.60
68217;DHT22;55037;52.354;4.992;2023-07-29T10:35:20;25.60;55.60
68217;DHT22;55037;52.354;4.992;2023-07-29T10:37:47;25.50;54.40
68217;DHT22;55037;52.354;4.992;2023-07-29T10:40:18;25.10;55.20
68217;DHT22;55037;52.354;4.992;2023-07-29T10:43:24;24.90;57.10
68217;DHT22;55037;52.354;4.992;2023-07-29T10:45:52;24.50;57.90
68217;DHT22;55037;52.354;4.992;2023-07-29T10:53:52;25.50;59.60
68217;DHT22;55037;52.354;4.992;2023-07-29T10:56:28;26.20;56.10
68217;DHT22;55037;52.354;4.992;2023-07-29T10:58:57;26.30;53.70
68217;DHT22;55037;52.354;4.992;2023-07-29T11:01:31;25.80;53.50
68217;DHT22;55037;52.354;4.992;2023-07-29T11:09:40;26.00;55.10
68217;DHT22;55037;52.354;4.992;2023-07-29T11:12:46;25.90;53.50
68217;DHT22;55037;52.354;4.992;2023-07-29T11:15:28;25.50;54.10
68217;DHT22;55037;52.354;4.992;2023-07-29T11:20:28;24.80;56.70
68217;DHT22;55037;52.354;4.992;2023-07-29T11:22:58;24.70;58.90
68217;DHT22;55037;52.354;4.992;2023-07-29T11:25:27;24.70;58.70
68217;DHT22;55037;52.354;4.992;2023-07-29T11:27:56;24.80;58.10
68217;DHT22;55037;52.354;4.992;2023-07-29T11:30:24;24.90;58.40
68217;DHT22;55037;52.354;4.992;2023-07-29T11:32:54;25.10;59.50
68217;DHT22;55037;52.354;4.992;2023-07-29T11:35:25;25.60;57.20
68217;DHT22;55037;52.354;4.992;2023-07-29T11:37:54;26.30;56.40
68217;DHT22;55037;52.354;4.992;2023-07-29T11:40:23;26.60;54.10
68217;DHT22;55037;52.354;4.992;2023-07-29T11:42:51;26.80;53.80
68217;DHT22;55037;52.354;4.992;2023-07-29T11:45:21;27.00;53.00
68217;DHT22;55037;52.354;4.992;2023-07-29T11:47:51;27.40;52.10
68217;DHT22;55037;52.354;4.992;2023-07-29T11:50:19;27.80;51.20
68217;DHT22;55037;52.354;4.992;2023-07-29T11:52:46;28.70;48.80
68217;DHT22;55037;52.354;4.992;2023-07-29T11:55:15;28.40;46.90
68217;DHT22;55037;52.354;4.992;2023-07-29T11:57:43;27.50;47.70
68217;DHT22;55037;52.354;4.992;2023-07-29T12:00:12;26.50;50.60
68217;DHT22;55037;52.354;4.992;2023-07-29T12:02:45;25.50;53.50
68217;DHT22;55037;52.354;4.992;2023-07-29T12:05:15;24.60;56.90
68217;DHT22;55037;52.354;4.992;2023-07-29T12:07:43;23.40;61.80
68217;DHT22;55037;52.354;4.992;2023-07-29T12:10:11;22.50;65.70
68217;DHT22;55037;52.354;4.992;2023-07-29T12:12:46;22.10;69.20
68217;DHT22;55037;52.354;4.992;2023-07-29T12:15:23;22.00;71.10
68217;DHT22;55037;52.354;4.992;2023-07-29T12:17:53;21.80;72.20
68217;DHT22;55037;52.354;4.992;2023-07-29T12:20:22;21.50;74.20
68217;DHT22;55037;52.354;4.992;2023-07-29T12:22:57;21.30;75.70
68217;DHT22;55037;52.354;4.992;2023-07-29T12:25:26;21.20;78.10
68217;DHT22;55037;52.354;4.992;2023-07-29T12:27:54;21.60;82.10
68217;DHT22;55037;52.354;4.992;2023-07-29T12:30:22;23.10;79.80
68217;DHT22;55037;52.354;4.992;2023-07-29T12:32:50;24.50;75.20
68217;DHT22;55037;52.354;4.992;2023-07-29T12:35:17;25.40;74.70
68217;DHT22;55037;52.354;4.992;2023-07-29T12:37:45;25.60;71.10
68217;DHT22;55037;52.354;4.992;2023-07-29T12:40:26;25.50;73.10
68217;DHT22;55037;52.354;4.992;2023-07-29T12:42:53;27.00;73.20
68217;DHT22;55037;52.354;4.992;2023-07-29T12:45:21;29.00;69.40
68217;DHT22;55037;52.354;4.992;2023-07-29T12:47:54;30.60;64.10
68217;DHT22;55037;52.354;4.992;2023-07-29T12:50:22;32.00;60.30
68217;DHT22;55037;52.354;4.992;2023-07-29T12:52:49;32.20;54.90
68217;DHT22;55037;52.354;4.992;2023-07-29T12:55:16;31.30;54.50
68217;DHT22;55037;52.354;4.992;2023-07-29T12:57:48;30.70;55.80
68217;DHT22;55037;52.354;4.992;2023-07-29T13:00:15;29.50;57.70
68217;DHT22;55037;52.354;4.992;2023-07-29T13:02:42;28.50;63.10
68217;DHT22;55037;52.354;4.992;2023-07-29T13:05:10;29.70;64.20
68217;DHT22;55037;52.354;4.992;2023-07-29T13:07:39;31.10;58.70
68217;DHT22;55037;52.354;4.992;2023-07-29T13:10:07;31.90;52.90
68217;DHT22;55037;52.354;4.992;2023-07-29T13:12:35;31.40;52.40
68217;DHT22;55037;52.354;4.992;2023-07-29T13:15:02;31.10;52.70
68217;DHT22;55037;52.354;4.992;2023-07-29T13:17:30;30.20;49.30
68217;DHT22;55037;52.354;4.992;2023-07-29T13:19:57;27.80;54.80
68217;DHT22;55037;52.354;4.992;2023-07-29T13:22:24;27.70;55.70
68217;DHT22;55037;52.354;4.992;2023-07-29T13:24:52;27.40;59.60
68217;DHT22;55037;52.354;4.992;2023-07-29T13:27:19;28.70;60.50
68217;DHT22;55037;52.354;4.992;2023-07-29T13:29:46;29.00;55.00
68217;DHT22;55037;52.354;4.992;2023-07-29T13:32:14;29.40;57.70
68217;DHT22;55037;52.354;4.992;2023-07-29T13:34:41;29.80;54.20
68217;DHT22;55037;52.354;4.992;2023-07-29T13:37:08;29.80;51.80
68217;DHT22;55037;52.354;4.992;2023-07-29T13:39:36;30.20;51.70
68217;DHT22;55037;52.354;4.992;2023-07-29T13:42:03;30.20;49.20
68217;DHT22;55037;52.354;4.992;2023-07-29T13:44:30;29.20;48.90
68217;DHT22;55037;52.354;4.992;2023-07-29T13:46:58;28.40;50.30
68217;DHT22;55037;52.354;4.992;2023-07-29T13:49:25;28.10;52.90
68217;DHT22;55037;52.354;4.992;2023-07-29T13:51:52;28.40;53.40
68217;DHT22;55037;52.354;4.992;2023-07-29T13:54:19;28.70;52.20
68217;DHT22;55037;52.354;4.992;2023-07-29T13:56:48;28.90;49.90
68217;DHT22;55037;52.354;4.992;2023-07-29T13:59:16;28.90;49.30
68217;DHT22;55037;52.354;4.992;2023-07-29T14:01:43;29.30;47.70
68217;DHT22;55037;52.354;4.992;2023-07-29T14:04:10;29.50;47.50
68217;DHT22;55037;52.354;4.992;2023-07-29T14:06:37;29.90;46.40
68217;DHT22;55037;52.354;4.992;2023-07-29T14:09:08;30.60;44.80
68217;DHT22;55037;52.354;4.992;2023-07-29T14:11:35;31.70;43.70
68217;DHT22;55037;52.354;4.992;2023-07-29T14:14:04;32.50;40.40
68217;DHT22;55037;52.354;4.992;2023-07-29T14:16:32;32.30;39.60
68217;DHT22;55037;52.354;4.992;2023-07-29T14:19:02;31.60;39.00
68217;DHT22;55037;52.354;4.992;2023-07-29T14:21:29;30.60;39.70
68217;DHT22;55037;52.354;4.992;2023-07-29T14:23:58;29.90;40.40
68217;DHT22;55037;52.354;4.992;2023-07-29T14:26:25;29.50;42.40
68217;DHT22;55037;52.354;4.992;2023-07-29T14:28:52;29.30;42.80
68217;DHT22;55037;52.354;4.992;2023-07-29T14:31:20;29.70;43.00
68217;DHT22;55037;52.354;4.992;2023-07-29T14:33:47;29.50;41.20
68217;DHT22;55037;52.354;4.992;2023-07-29T14:36:15;29.30;42.80
68217;DHT22;55037;52.354;4.992;2023-07-29T14:38:42;29.20;42.20
68217;DHT22;55037;52.354;4.992;2023-07-29T14:41:10;29.20;42.40
68217;DHT22;55037;52.354;4.992;2023-07-29T14:43:37;29.50;42.40
68217;DHT22;55037;52.354;4.992;2023-07-29T14:46:05;30.30;40.10
68217;DHT22;55037;52.354;4.992;2023-07-29T14:48:32;30.40;38.30
68217;DHT22;55037;52.354;4.992;2023-07-29T14:51:00;30.20;38.60
68217;DHT22;55037;52.354;4.992;2023-07-29T14:53:27;30.30;39.30
68217;DHT22;55037;52.354;4.992;2023-07-29T14:55:54;30.50;38.80
68217;DHT22;55037;52.354;4.992;2023-07-29T14:58:21;30.10;39.10
68217;DHT22;55037;52.354;4.992;2023-07-29T15:00:49;30.00;39.60
68217;DHT22;55037;52.354;4.992;2023-07-29T15:03:16;29.80;40.00
68217;DHT22;55037;52.354;4.992;2023-07-29T15:05:43;30.00;39.50
68217;DHT22;55037;52.354;4.992;2023-07-29T15:08:11;29.80;39.50
68217;DHT22;55037;52.354;4.992;2023-07-29T15:10:38;29.30;40.10
68217;DHT22;55037;52.354;4.992;2023-07-29T15:13:05;29.00;40.80
68217;DHT22;55037;52.354;4.992;2023-07-29T15:15:32;28.80;41.20
68217;DHT22;55037;52.354;4.992;2023-07-29T15:18:00;29.30;41.50
68217;DHT22;55037;52.354;4.992;2023-07-29T15:20:27;29.70;39.60
68217;DHT22;55037;52.354;4.992;2023-07-29T15:22:54;29.80;37.40
68217;DHT22;55037;52.354;4.992;2023-07-29T15:25:22;29.80;37.20
68217;DHT22;55037;52.354;4.992;2023-07-29T15:27:49;29.70;36.70
68217;DHT22;55037;52.354;4.992;2023-07-29T15:30:17;29.50;36.40
68217;DHT22;55037;52.354;4.992;2023-07-29T15:32:44;29.20;36.90
68217;DHT22;55037;52.354;4.992;2023-07-29T15:35:12;28.80;38.10
68217;DHT22;55037;52.354;4.992;2023-07-29T15:37:39;28.90;37.50
68217;DHT22;55037;52.354;4.992;2023-07-29T15:40:07;29.10;37.20
68217;DHT22;55037;52.354;4.992;2023-07-29T15:42:35;29.20;36.50
68217;DHT22;55037;52.354;4.992;2023-07-29T15:45:02;29.10;36.30
68217;DHT22;55037;52.354;4.992;2023-07-29T15:47:29;28.90;37.10
68217;DHT22;55037;52.354;4.992;2023-07-29T15:49:57;28.90;37.00
68217;DHT22;55037;52.354;4.992;2023-07-29T15:52:25;28.90;38.00
68217;DHT22;55037;52.354;4.992;2023-07-29T15:54:54;29.00;37.30